METAR de aeropuertos de Murcia y cercanos

 

LEAL - Alicante
Actualización: 25/06/2017 17:30
Despejado
Despejado
 Viento del E
Viento: E 30 km/h
Temperatura: 29°C
Heat Index: 30°C
Rocío: 19°C
Humedad: 55%
Barómetro: 1013 hPa
Resumen: Despejado
Visibilidad: greater than 10 km
2017/06/25 15:30 LEAL 251530Z 08016KT CAVOK 29/19 Q1013 NOSIG
LEAB - Albacete
Actualización: 25/06/2017 17:00
Despejado
Despejado
 Viento del S
Viento: S 22 km/h
Temperatura: 33°C
Rocío: 8°C
Humedad: 21%
Barómetro: 1015 hPa
Resumen: Despejado
Visibilidad: greater than 10 km
2017/06/25 15:00 LEAB 251500Z 17012KT 140V200 CAVOK 33/08 Q1015 NOSIG
LEAM - Almería
Actualización: 25/06/2017 17:30
Despejado
Despejado
 Viento del ENE
Viento: ENE 33 km/h
Temperatura: 34°C
Rocío: 16°C
Humedad: 34%
Barómetro: 1010 hPa
Resumen: Despejado
Visibilidad: greater than 10 km
2017/06/25 15:30 LEAM 251530Z 07018KT CAVOK 34/16 Q1010
 
LERI - Murcia/Alcantarilla
Actualización: 25/06/2017 17:00
Despejado
Despejado
 Viento del ENE
Viento: ENE 19 km/h
Temperatura: 33°C
Rocío: 11°C
Humedad: 26%
Barómetro: 1013 hPa
Resumen: Despejado
Visibilidad: greater than 10 km
2017/06/25 15:00 LERI 251500Z 07010KT CAVOK 33/11 Q1013 NOSIG
LELC - Murcia/San Javier
Actualización: 25/06/2017 17:00
Few Clouds
Few Clouds
 Viento del NE
Viento: NE 22 km/h
Temperatura: 27°C
Heat Index: 29°C
Rocío: 22°C
Humedad: 74%
Barómetro: 1014 hPa
Nubosidad: Few Clouds
Visibilidad: 8 km
Cloud details: Few Clouds 305 m
2017/06/25 15:00 LELC 251500Z 05012KT 010V090 8000 FEW010 27/22 Q1014 NOSIG

La estación de MeteoMurcia.com, publica sus datos en los siguientes proyectos:

Meteoclimatic www.awekas.at

W3Counter
Web Analytics